Time;durP1;ratioP1;P1;durP2;ratioP2;P2;SDS_P1;SDS_P2;PMS_P1;PMS_P2;Temp;Humidity;BMP_temperature;BMP_pressure;BME280_temperature;BME280_humidity;BME280_pressure;Samples;Min_cycle;Max_cycle;Signal;HPM_P1;HPM_P2
2022/11/28 00:03:24;;;;;;;;;;;;;;;5.23;99.40;99079.88;10213664;23;19924;-75
2022/11/28 00:07:25;;;;;;;;;;;;;;;5.20;99.13;99066.94;10192353;23;19924;-75
2022/11/28 00:11:27;;;;;;;;;;;;;;;5.20;99.05;99050.66;10217788;23;20452;-74
2022/11/28 00:15:28;;;;;;;;;;;;;;;5.22;99.24;99036.13;10188498;23;20002;-75
2022/11/28 00:19:29;;;;;;;;;;;;;;;5.19;99.52;99023.19;10229322;23;19950;-75
2022/11/28 00:23:32;;;;;;;;;;;;;;;5.12;99.10;99022.25;10230251;23;19931;-75
2022/11/28 00:27:33;;;;;;;;;;;;;;;5.09;98.94;99027.38;10229698;23;19982;-75
2022/11/28 00:31:40;;;;;;;;;;;;;;;5.03;98.96;99017.91;10223423;23;19990;-74
2022/11/28 00:35:42;;;;;;;;;;;;;;;5.03;98.69;99022.19;10226308;23;19952;-74
2022/11/28 00:39:44;;;;;;;;;;;;;;;4.98;98.65;99019.53;10201169;23;20078;-74
2022/11/28 00:43:45;;;;;;;;;;;;;;;4.94;99.08;99007.47;10227022;23;19920;-74
2022/11/28 00:47:48;;;;;;;;;;;;;;;4.91;99.01;99002.31;10201604;23;19924;-74
2022/11/28 00:51:49;;;;;;;;;;;;;;;4.89;98.60;98995.41;10207061;23;19924;-74
2022/11/28 00:55:50;;;;;;;;;;;;;;;4.87;98.73;99005.69;10231882;23;19924;-75
2022/11/28 00:59:55;;;;;;;;;;;;;;;4.89;98.69;99004.00;10230772;23;19920;-75
2022/11/28 01:03:57;;;;;;;;;;;;;;;4.85;98.95;99008.25;10225829;23;19920;-74
2022/11/28 01:07:59;;;;;;;;;;;;;;;4.81;98.84;98998.75;10207583;23;19978;-75
2022/11/28 01:12:00;;;;;;;;;;;;;;;4.78;99.01;99000.44;10233036;23;19924;-74
2022/11/28 01:16:02;;;;;;;;;;;;;;;4.77;99.52;98994.41;10230026;23;19924;-75
2022/11/28 01:20:04;;;;;;;;;;;;;;;4.74;99.58;98990.94;10232848;23;19924;-75
2022/11/28 01:24:06;;;;;;;;;;;;;;;4.72;99.55;98990.94;10208713;23;20375;-75
2022/11/28 01:28:07;;;;;;;;;;;;;;;4.67;99.49;98987.44;10207529;23;20054;-75
2022/11/28 01:32:08;;;;;;;;;;;;;;;4.64;99.19;98989.97;10204365;23;19931;-74
2022/11/28 01:36:11;;;;;;;;;;;;;;;4.62;99.72;98986.50;10234963;23;20010;-74
2022/11/28 01:40:12;;;;;;;;;;;;;;;4.63;99.68;98988.22;10234053;23;19924;-74
2022/11/28 01:44:13;;;;;;;;;;;;;;;4.59;99.68;98989.03;10235803;23;19921;-74
2022/11/28 01:48:18;;;;;;;;;;;;;;;4.54;99.43;98978.72;10221102;23;19932;-74
2022/11/28 01:52:20;;;;;;;;;;;;;;;4.49;99.64;98969.22;10220559;23;20271;-74
2022/11/28 01:56:23;;;;;;;;;;;;;;;4.48;99.75;98964.91;10220587;23;19999;-74
2022/11/28 02:00:25;;;;;;;;;;;;;;;4.36;99.07;98957.91;10212382;23;20014;-74
2022/11/28 02:04:27;;;;;;;;;;;;;;;4.29;98.76;98955.22;10220816;23;20011;-74
2022/11/28 02:08:31;;;;;;;;;;;;;;;4.22;98.96;98955.13;10221557;23;19995;-74
2022/11/28 02:12:51;;;;;;;;;;;;;;;4.17;99.14;98946.53;10220292;23;20197;-72
2022/11/28 02:17:04;;;;;;;;;;;;;;;4.15;99.43;98929.34;10182555;23;19962;-72
2022/11/28 02:21:05;;;;;;;;;;;;;;;4.11;99.83;98923.28;10242639;23;20034;-72
2022/11/28 02:25:16;;;;;;;;;;;;;;;4.03;99.32;98931.75;10219794;23;20624;-75
2022/11/28 02:29:20;;;;;;;;;;;;;;;4.02;99.44;98936.03;10219638;23;19963;-75
2022/11/28 02:33:31;;;;;;;;;;;;;;;4.06;99.92;98937.78;10226961;23;19924;-75
2022/11/28 02:37:35;;;;;;;;;;;;;;;4.03;99.79;98940.31;10234227;23;19924;-72
2022/11/28 02:41:37;;;;;;;;;;;;;;;4.00;99.84;98935.13;10210863;23;19924;-72
2022/11/28 02:45:38;;;;;;;;;;;;;;;3.97;99.85;98929.97;10230401;23;19924;-72
2022/11/28 02:49:39;;;;;;;;;;;;;;;3.93;99.83;98926.47;10234225;23;19997;-72
2022/11/28 02:53:42;;;;;;;;;;;;;;;3.89;99.90;98926.41;10235268;23;20066;-72
2022/11/28 02:57:48;;;;;;;;;;;;;;;3.85;99.55;98917.78;10233407;23;19924;-72
2022/11/28 03:01:50;;;;;;;;;;;;;;;3.84;99.92;98917.78;10231533;23;19924;-72
2022/11/28 03:06:16;;;;;;;;;;;;;;;3.77;99.62;98910.81;10212829;23;20473;-72
2022/11/28 03:10:29;;;;;;;;;;;;;;;3.72;99.52;98903.03;10211954;23;19924;-73
2022/11/28 03:14:30;;;;;;;;;;;;;;;3.68;99.53;98905.56;10213029;23;19924;-72
2022/11/28 03:18:38;;;;;;;;;;;;;;;3.64;99.41;98914.91;10206786;23;19978;-72
2022/11/28 03:22:47;;;;;;;;;;;;;;;3.62;99.74;98922.59;10240171;23;19924;-72
2022/11/28 03:27:07;;;;;;;;;;;;;;;3.67;100.00;98919.22;10212492;23;19924;-73
2022/11/28 03:31:11;;;;;;;;;;;;;;;3.64;100.00;98917.47;10231351;23;19924;-72
2022/11/28 03:35:15;;;;;;;;;;;;;;;3.60;100.00;98924.28;10237444;23;20192;-75
2022/11/28 03:39:20;;;;;;;;;;;;;;;3.61;100.00;98925.13;10239993;23;20312;-75
2022/11/28 03:43:26;;;;;;;;;;;;;;;3.58;100.00;98925.94;10238079;23;19968;-75
2022/11/28 03:47:39;;;;;;;;;;;;;;;3.62;100.00;98920.03;10256955;23;19970;-75
2022/11/28 03:51:45;;;;;;;;;;;;;;;3.68;100.00;98921.81;10236422;23;20364;-75
2022/11/28 03:55:51;;;;;;;;;;;;;;;3.68;100.00;98921.81;10235057;23;19959;-75
2022/11/28 03:59:54;;;;;;;;;;;;;;;3.71;100.00;98913.28;10234744;23;19924;-75
2022/11/28 04:04:04;;;;;;;;;;;;;;;3.73;100.00;98916.75;10203878;23;20240;-75
2022/11/28 04:08:12;;;;;;;;;;;;;;;3.72;100.00;98905.63;10232526;23;19928;-75
2022/11/28 04:12:19;;;;;;;;;;;;;;;3.74;100.00;98896.22;10207309;23;19932;-73
2022/11/28 04:16:30;;;;;;;;;;;;;;;3.78;100.00;98890.31;10203448;23;19974;-73
2022/11/28 04:20:46;;;;;;;;;;;;;;;3.77;100.00;98883.47;10234066;23;19924;-73
2022/11/28 04:24:52;;;;;;;;;;;;;;;3.81;100.00;98886.94;10233265;23;19924;-72
2022/11/28 04:28:55;;;;;;;;;;;;;;;3.81;100.00;98889.50;10232661;23;19924;-73
2022/11/28 04:32:59;;;;;;;;;;;;;;;3.85;100.00;98878.41;10219546;23;19935;-72
2022/11/28 04:37:03;;;;;;;;;;;;;;;3.91;100.00;98884.50;10218213;23;20114;-72
2022/11/28 04:41:15;;;;;;;;;;;;;;;3.97;100.00;98881.16;10218056;23;20249;-72
2022/11/28 04:45:20;;;;;;;;;;;;;;;4.02;100.00;98884.66;10192509;23;20601;-72
2022/11/28 04:49:22;;;;;;;;;;;;;;;4.08;100.00;98879.59;10210828;23;20295;-72
2022/11/28 04:53:31;;;;;;;;;;;;;;;4.15;100.00;98886.53;10234358;23;19923;-72
2022/11/28 04:57:35;;;;;;;;;;;;;;;4.19;100.00;98883.16;10235911;23;20031;-72
2022/11/28 05:01:37;;;;;;;;;;;;;;;4.25;100.00;98874.66;10229567;23;20304;-73
2022/11/28 05:05:41;;;;;;;;;;;;;;;4.33;100.00;98873.06;10235157;23;19924;-73
2022/11/28 05:09:42;;;;;;;;;;;;;;;4.40;100.00;98880.00;10222438;23;20039;-72
2022/11/28 05:13:44;;;;;;;;;;;;;;;4.46;100.00;98876.63;10220261;23;19936;-72
2022/11/28 05:17:45;;;;;;;;;;;;;;;4.47;100.00;98873.19;10212316;23;19994;-72
2022/11/28 05:21:47;;;;;;;;;;;;;;;4.51;100.00;98870.69;10221767;23;19931;-72
2022/11/28 05:25:48;;;;;;;;;;;;;;;4.57;100.00;98877.63;10222156;23;19931;-72
2022/11/28 05:29:52;;;;;;;;;;;;;;;4.62;100.00;98873.38;10220915;23;20387;-72
2022/11/28 05:33:53;;;;;;;;;;;;;;;4.68;100.00;98872.59;10221796;23;19982;-72
2022/11/28 05:37:54;;;;;;;;;;;;;;;4.73;100.00;98874.38;10219959;23;20268;-72
2022/11/28 05:41:56;;;;;;;;;;;;;;;4.77;100.00;98875.25;10219959;23;19960;-72
2022/11/28 05:45:58;;;;;;;;;;;;;;;4.83;100.00;98883.03;10217638;23;19992;-72
2022/11/28 05:49:59;;;;;;;;;;;;;;;4.87;100.00;98883.94;10231336;23;19920;-73
2022/11/28 05:54:01;;;;;;;;;;;;;;;4.91;100.00;98880.53;10205602;23;19978;-72
2022/11/28 05:58:04;;;;;;;;;;;;;;;4.95;100.00;98879.72;10231673;23;20280;-72
2022/11/28 06:02:06;;;;;;;;;;;;;;;4.98;100.00;98874.59;10221670;23;19951;-72
2022/11/28 06:06:15;;;;;;;;;;;;;;;4.99;100.00;98871.19;10221648;23;20058;-73
2022/11/28 06:10:17;;;;;;;;;;;;;;;5.05;100.00;98871.25;10219365;23;19929;-72
2022/11/28 06:14:18;;;;;;;;;;;;;;;5.12;100.00;98867.88;10195574;23;20003;-72
2022/11/28 06:18:20;;;;;;;;;;;;;;;5.17;100.00;98868.75;10211575;23;20003;-75
2022/11/28 06:22:21;;;;;;;;;;;;;;;5.32;100.00;98870.59;10223037;23;19960;-75
2022/11/28 06:26:23;;;;;;;;;;;;;;;5.44;100.00;98879.31;10209914;23;19959;-75
2022/11/28 06:30:24;;;;;;;;;;;;;;;5.54;100.00;98882.78;10204035;23;20235;-76
2022/11/28 06:34:25;;;;;;;;;;;;;;;5.63;100.00;98887.16;10209173;23;19920;-75
2022/11/28 06:38:27;;;;;;;;;;;;;;;5.70;100.00;98888.91;10236342;23;19985;-75
2022/11/28 06:42:29;;;;;;;;;;;;;;;5.72;100.00;98893.22;10231409;23;20491;-75
2022/11/28 06:46:30;;;;;;;;;;;;;;;5.74;100.00;98896.69;10194831;23;19958;-75
2022/11/28 06:50:31;;;;;;;;;;;;;;;5.80;100.00;98897.59;10195127;23;20215;-75
2022/11/28 06:54:33;;;;;;;;;;;;;;;5.88;100.00;98895.91;10220793;23;20374;-75
2022/11/28 06:58:34;;;;;;;;;;;;;;;5.94;100.00;98896.84;10193705;23;19958;-75
2022/11/28 07:02:35;;;;;;;;;;;;;;;6.05;100.00;98902.91;10209953;23;19924;-75
2022/11/28 07:06:37;;;;;;;;;;;;;;;6.12;100.00;98905.56;10223477;23;20296;-75
2022/11/28 07:10:38;;;;;;;;;;;;;;;6.17;100.00;98902.13;10219834;23;20251;-75
2022/11/28 07:14:40;;;;;;;;;;;;;;;6.20;100.00;98904.72;10221666;23;20015;-76
2022/11/28 07:18:41;;;;;;;;;;;;;;;6.17;100.00;98903.84;10212136;23;19931;-76
2022/11/28 07:22:45;;;;;;;;;;;;;;;6.18;100.00;98905.56;10222148;23;19924;-76
2022/11/28 07:26:47;;;;;;;;;;;;;;;6.26;100.00;98909.91;10221358;23;19974;-76
2022/11/28 07:30:48;;;;;;;;;;;;;;;6.27;100.00;98909.03;10188669;23;20532;-76
2022/11/28 07:34:49;;;;;;;;;;;;;;;6.30;100.00;98908.22;10221781;23;19924;-76
2022/11/28 07:38:55;;;;;;;;;;;;;;;6.30;100.00;98910.81;10220361;23;19925;-77
2022/11/28 07:42:56;;;;;;;;;;;;;;;6.31;100.00;98902.22;10221454;23;19924;-74
2022/11/28 07:46:58;;;;;;;;;;;;;;;6.32;100.00;98899.63;10215738;23;20021;-76
2022/11/28 07:51:03;;;;;;;;;;;;;;;6.35;100.00;98901.34;10226960;23;20014;-76
2022/11/28 07:55:04;;;;;;;;;;;;;;;6.38;100.00;98893.63;10233809;23;19924;-76
2022/11/28 07:59:06;;;;;;;;;;;;;;;6.40;100.00;98899.66;10220658;23;19951;-74
2022/11/28 08:03:07;;;;;;;;;;;;;;;6.44;100.00;98903.09;10219334;23;19929;-74
2022/11/28 08:07:11;;;;;;;;;;;;;;;6.46;100.00;98906.53;10252026;23;19947;-75
2022/11/28 08:11:13;;;;;;;;;;;;;;;6.49;100.00;98904.00;10218854;23;19924;-75
2022/11/28 08:15:14;;;;;;;;;;;;;;;6.54;100.00;98903.16;10192127;23;19924;-74
2022/11/28 08:19:16;;;;;;;;;;;;;;;6.60;100.00;98908.31;10217441;23;19924;-75
2022/11/28 08:23:19;;;;;;;;;;;;;;;6.68;100.00;98910.09;10219054;23;19961;-75
2022/11/28 08:27:21;;;;;;;;;;;;;;;6.74;100.00;98915.25;10193882;23;19924;-75
2022/11/28 08:31:24;;;;;;;;;;;;;;;6.79;100.00;98918.72;10200055;23;19974;-75
2022/11/28 08:35:25;;;;;;;;;;;;;;;6.84;100.00;98922.19;10240854;23;20506;-75
2022/11/28 08:39:27;;;;;;;;;;;;;;;6.86;100.00;98921.31;10222496;23;20010;-76
2022/11/28 08:43:29;;;;;;;;;;;;;;;6.91;100.00;98911.88;10223465;23;19956;-76
2022/11/28 08:47:30;;;;;;;;;;;;;;;6.95;100.00;98913.59;10216357;23;19947;-76
2022/11/28 08:51:32;;;;;;;;;;;;;;;7.02;100.00;98905.88;10225212;23;20456;-75
2022/11/28 08:55:33;;;;;;;;;;;;;;;7.07;100.00;98911.91;10221936;23;20454;-74
2022/11/28 08:59:41;;;;;;;;;;;;;;;7.11;100.00;98909.31;10219958;23;20299;-72
2022/11/28 09:03:43;;;;;;;;;;;;;;;7.15;100.00;98908.47;10189620;23;19924;-74
2022/11/28 09:07:45;;;;;;;;;;;;;;;7.18;100.00;98911.09;10221084;23;20310;-75
2022/11/28 09:11:46;;;;;;;;;;;;;;;7.22;100.00;98915.38;10197183;23;20367;-75
2022/11/28 09:15:48;;;;;;;;;;;;;;;7.26;99.99;98911.94;10211996;23;19927;-74
2022/11/28 09:19:53;;;;;;;;;;;;;;;7.33;99.97;98917.94;10220784;23;20213;-75
2022/11/28 09:23:55;;;;;;;;;;;;;;;7.38;99.47;98912.81;10197203;23;20023;-74
2022/11/28 09:27:57;;;;;;;;;;;;;;;7.41;99.29;98916.25;10222102;23;20002;-75
2022/11/28 09:31:58;;;;;;;;;;;;;;;7.49;99.71;98924.00;10218554;23;19924;-75
2022/11/28 09:36:07;;;;;;;;;;;;;;;7.57;99.47;98920.56;10224422;23;20328;-75
2022/11/28 09:40:22;;;;;;;;;;;;;;;7.69;99.58;98924.84;10225447;23;20200;-75
2022/11/28 09:44:23;;;;;;;;;;;;;;;7.78;99.93;98917.09;10218567;23;19925;-74
2022/11/28 09:48:31;;;;;;;;;;;;;;;7.88;99.59;98918.81;10183261;23;20297;-75
2022/11/28 09:52:41;;;;;;;;;;;;;;;7.97;99.62;98907.59;10216447;23;19970;-75
2022/11/28 09:56:44;;;;;;;;;;;;;;;8.04;99.56;98911.88;10222479;23;19935;-75
2022/11/28 10:00:50;;;;;;;;;;;;;;;8.10;99.45;98916.19;10215468;23;20583;-75
2022/11/28 10:05:11;;;;;;;;;;;;;;;8.15;99.14;98922.22;10225236;23;19924;-76
2022/11/28 10:09:12;;;;;;;;;;;;;;;8.22;98.97;98923.06;10200023;23;20023;-75
2022/11/28 10:13:20;;;;;;;;;;;;;;;8.28;98.39;98910.13;10229262;23;19920;-76
2022/11/28 10:17:30;;;;;;;;;;;;;;;8.33;97.99;98909.22;10226629;23;19925;-76
2022/11/28 10:21:35;;;;;;;;;;;;;;;8.38;98.24;98896.31;10219362;23;19924;-76
2022/11/28 10:25:42;;;;;;;;;;;;;;;8.43;98.14;98905.75;10219508;23;19924;-76
2022/11/28 10:29:44;;;;;;;;;;;;;;;8.49;98.66;98897.16;10217462;23;19975;-76
2022/11/28 10:34:18;;;;;;;;;;;;;;;8.56;97.63;98906.59;10251736;23;19938;-76
2022/11/28 10:38:24;;;;;;;;;;;;;;;8.65;97.50;98895.34;10230399;23;19928;-76
2022/11/28 10:42:34;;;;;;;;;;;;;;;8.77;96.85;98887.50;10265084;23;19972;-76
2022/11/28 10:46:38;;;;;;;;;;;;;;;8.89;97.35;98887.44;10246639;23;19935;-76
2022/11/28 10:50:49;;;;;;;;;;;;;;;8.96;97.48;98883.94;10218126;23;20012;-76
2022/11/28 10:54:59;;;;;;;;;;;;;;;9.03;97.40;98882.19;10215634;23;19924;-77
2022/11/28 10:59:07;;;;;;;;;;;;;;;9.09;96.66;98877.81;10219036;23;19924;-76
2022/11/28 11:03:10;;;;;;;;;;;;;;;9.14;95.87;98882.09;10218637;23;19928;-76
2022/11/28 11:07:16;;;;;;;;;;;;;;;9.19;95.04;98876.03;10219335;23;19983;-77
2022/11/28 11:11:24;;;;;;;;;;;;;;;9.21;95.26;98878.63;10219399;23;19935;-76
2022/11/28 11:15:29;;;;;;;;;;;;;;;9.21;94.36;98881.22;10236583;23;19924;-78
2022/11/28 11:19:32;;;;;;;;;;;;;;;9.19;93.97;98882.94;10193550;23;19924;-76
2022/11/28 11:23:34;;;;;;;;;;;;;;;9.19;92.57;98880.34;10262964;23;19921;-79
2022/11/28 11:28:02;;;;;;;;;;;;;;;9.24;92.52;98873.41;10259928;23;19924;-76
2022/11/28 11:32:05;;;;;;;;;;;;;;;9.27;92.88;98865.59;10250289;23;20257;-76
2022/11/28 11:36:20;;;;;;;;;;;;;;;9.27;92.29;98868.19;10290849;23;19927;-77
2022/11/28 11:40:21;;;;;;;;;;;;;;;9.32;92.13;98869.00;10270804;23;19924;-78
2022/11/28 11:44:28;;;;;;;;;;;;;;;9.33;91.30;98868.13;10263669;23;19925;-75
2022/11/28 11:48:49;;;;;;;;;;;;;;;9.38;91.03;98871.56;10252314;23;19928;-79
2022/11/28 11:53:01;;;;;;;;;;;;;;;9.44;91.33;98862.88;10230971;23;19924;-79
2022/11/28 11:57:02;;;;;;;;;;;;;;;9.49;91.38;98867.16;10252451;23;19924;-76
2022/11/28 12:01:24;;;;;;;;;;;;;;;9.52;91.83;98868.88;10238844;23;19955;-80
2022/11/28 12:05:29;;;;;;;;;;;;;;;9.56;92.08;98858.47;10263260;23;19924;-80
2022/11/28 12:09:52;;;;;;;;;;;;;;;9.59;92.15;98862.75;10259826;23;19931;-77
2022/11/28 12:13:58;;;;;;;;;;;;;;;9.62;92.31;98855.81;10256745;23;19930;-77
2022/11/28 12:18:08;;;;;;;;;;;;;;;9.66;92.24;98854.03;10218668;23;19935;-80
2022/11/28 12:22:17;;;;;;;;;;;;;;;9.67;91.74;98846.25;10210464;23;20007;-77
2022/11/28 12:26:21;;;;;;;;;;;;;;;9.70;90.39;98855.75;10211753;23;19924;-76
2022/11/28 12:30:25;;;;;;;;;;;;;;;9.72;90.62;98851.41;10206550;23;19982;-77
2022/11/28 12:34:36;;;;;;;;;;;;;;;9.71;91.38;98836.72;10218209;23;19946;-77
2022/11/28 12:38:37;;;;;;;;;;;;;;;9.69;91.01;98836.75;10216288;23;20053;-76
2022/11/28 12:42:39;;;;;;;;;;;;;;;9.66;90.83;98834.16;10215832;23;20628;-76
2022/11/28 12:46:40;;;;;;;;;;;;;;;9.66;90.85;98833.31;10211771;23;19924;-77
2022/11/28 12:50:44;;;;;;;;;;;;;;;9.65;89.95;98837.63;10225047;23;19966;-76
2022/11/28 12:54:49;;;;;;;;;;;;;;;9.62;89.40;98832.47;10192455;23;20259;-76
2022/11/28 12:58:55;;;;;;;;;;;;;;;9.60;88.40;98826.44;10216559;23;19962;-76
2022/11/28 13:02:56;;;;;;;;;;;;;;;9.60;88.15;98830.78;10247071;23;19931;-81
2022/11/28 13:07:07;;;;;;;;;;;;;;;9.57;87.58;98834.25;10269562;23;19931;-80
2022/11/28 13:11:27;;;;;;;;;;;;;;;9.55;87.32;98824.78;10269416;23;19924;-82
2022/11/28 13:15:28;;;;;;;;;;;;;;;9.53;88.10;98821.34;10266482;23;19920;-82
2022/11/28 13:19:43;;;;;;;;;;;;;;;9.53;88.35;98817.03;10268523;23;20019;-80
2022/11/28 13:23:56;;;;;;;;;;;;;;;9.52;88.13;98817.91;10269118;23;19959;-77
2022/11/28 13:28:11;;;;;;;;;;;;;;;9.52;89.11;98819.63;10269186;23;19920;-81
2022/11/28 13:32:19;;;;;;;;;;;;;;;9.49;89.21;98817.91;10267185;23;19943;-82
2022/11/28 13:36:37;;;;;;;;;;;;;;;9.53;89.03;98823.94;10267915;23;19940;-79
2022/11/28 13:41:05;;;;;;;;;;;;;;;9.50;89.58;98826.53;10269346;23;20007;-79
2022/11/28 13:45:34;;;;;;;;;;;;;;;9.51;89.56;98825.66;10259531;23;19931;-76
2022/11/28 13:49:35;;;;;;;;;;;;;;;9.51;90.89;98823.06;10218354;23;19924;-77
2022/11/28 13:53:38;;;;;;;;;;;;;;;9.48;91.40;98821.38;10195101;23;19924;-78
2022/11/28 13:57:39;;;;;;;;;;;;;;;9.49;91.77;98828.28;10214453;23;20020;-77
2022/11/28 14:01:50;;;;;;;;;;;;;;;9.50;90.59;98839.50;10215120;23;19982;-79
2022/11/28 14:05:56;;;;;;;;;;;;;;;9.51;90.77;98831.72;10245962;23;20422;-76
2022/11/28 14:10:23;;;;;;;;;;;;;;;9.50;91.09;98829.13;10194091;23;20312;-76
2022/11/28 14:14:27;;;;;;;;;;;;;;;9.51;91.59;98823.94;10221886;23;19924;-77
2022/11/28 14:18:34;;;;;;;;;;;;;;;9.52;91.44;98828.28;10210407;23;19977;-77
2022/11/28 14:22:58;;;;;;;;;;;;;;;9.51;91.61;98829.13;10219394;23;19931;-77
2022/11/28 14:27:01;;;;;;;;;;;;;;;9.48;91.87;98836.91;10220091;23;19955;-76
2022/11/28 14:31:11;;;;;;;;;;;;;;;9.47;91.59;98839.53;10212747;23;20205;-77
2022/11/28 14:35:36;;;;;;;;;;;;;;;9.44;91.47;98839.56;10218136;23;19986;-77
2022/11/28 14:39:37;;;;;;;;;;;;;;;9.41;91.68;98853.41;10219108;23;19924;-77
2022/11/28 14:43:45;;;;;;;;;;;;;;;9.37;92.04;98854.31;10194585;23;19924;-77
2022/11/28 14:48:05;;;;;;;;;;;;;;;9.35;92.08;98859.50;10240065;23;19931;-85
2022/11/28 14:52:07;;;;;;;;;;;;;;;9.33;92.58;98860.38;10250231;23;19964;-78
2022/11/28 14:56:29;;;;;;;;;;;;;;;9.29;93.31;98859.53;10257121;23;20007;-81
2022/11/28 15:00:33;;;;;;;;;;;;;;;9.25;93.40;98867.34;10267946;23;19931;-80
2022/11/28 15:04:44;;;;;;;;;;;;;;;9.23;94.24;98866.50;10221087;23;20306;-76
2022/11/28 15:08:53;;;;;;;;;;;;;;;9.18;94.26;98863.09;10219790;23;19951;-79
2022/11/28 15:13:13;;;;;;;;;;;;;;;9.15;93.76;98863.97;10218189;23;19924;-77
2022/11/28 15:17:17;;;;;;;;;;;;;;;9.12;93.67;98868.31;10234795;23;19920;-78
2022/11/28 15:21:20;;;;;;;;;;;;;;;9.08;94.14;98868.34;10278512;23;20116;-79
2022/11/28 15:25:23;;;;;;;;;;;;;;;9.06;94.93;98875.25;10265784;23;19927;-75
2022/11/28 15:29:26;;;;;;;;;;;;;;;9.03;94.83;98872.69;10265489;23;19920;-76
2022/11/28 15:33:28;;;;;;;;;;;;;;;9.00;95.06;98869.28;10262537;23;20189;-77
2022/11/28 15:37:31;;;;;;;;;;;;;;;8.98;95.06;98876.19;10262966;23;19964;-80
2022/11/28 15:41:33;;;;;;;;;;;;;;;8.95;95.18;98876.19;10268169;23;19924;-79
2022/11/28 15:45:35;;;;;;;;;;;;;;;8.91;95.41;98879.66;10274151;23;19928;-79
2022/11/28 15:49:39;;;;;;;;;;;;;;;8.88;96.28;98885.72;10274144;23;19920;-77
2022/11/28 15:53:41;;;;;;;;;;;;;;;8.87;95.75;98893.50;10272577;23;19955;-78
2022/11/28 15:57:42;;;;;;;;;;;;;;;8.88;95.62;98884.88;10269534;23;19963;-79
2022/11/28 16:01:44;;;;;;;;;;;;;;;8.87;95.28;98888.31;10243211;23;19943;-79
2022/11/28 16:05:47;;;;;;;;;;;;;;;8.82;95.73;98890.94;10189012;23;19964;-76
2022/11/28 16:09:52;;;;;;;;;;;;;;;8.78;95.98;98891.81;10213222;23;19924;-77
2022/11/28 16:13:55;;;;;;;;;;;;;;;8.76;96.28;98889.22;10191010;23;19959;-76
2022/11/28 16:17:56;;;;;;;;;;;;;;;8.73;96.67;98894.44;10207928;23;19998;-76
2022/11/28 16:22:00;;;;;;;;;;;;;;;8.71;97.28;98897.91;10214695;23;19995;-75
2022/11/28 16:26:03;;;;;;;;;;;;;;;8.69;97.60;98897.06;10215861;23;20031;-75
2022/11/28 16:30:19;;;;;;;;;;;;;;;8.68;96.97;98897.91;10207080;23;19982;-76
2022/11/28 16:34:41;;;;;;;;;;;;;;;8.65;97.46;98900.53;10213890;23;19925;-75
2022/11/28 16:38:43;;;;;;;;;;;;;;;8.62;97.40;98903.13;10209343;23;19924;-76
2022/11/28 16:42:52;;;;;;;;;;;;;;;8.61;97.65;98902.25;10217537;23;19928;-76
2022/11/28 16:46:54;;;;;;;;;;;;;;;8.60;98.25;98900.53;10214253;23;20346;-76
2022/11/28 16:51:14;;;;;;;;;;;;;;;8.56;98.11;98893.66;10215363;23;20019;-75
2022/11/28 16:55:28;;;;;;;;;;;;;;;8.54;98.58;98902.28;10218624;23;19924;-75
2022/11/28 16:59:29;;;;;;;;;;;;;;;8.51;98.93;98902.31;10217810;23;19924;-75
2022/11/28 17:03:50;;;;;;;;;;;;;;;8.48;99.31;98906.63;10210716;23;20587;-76
2022/11/28 17:07:52;;;;;;;;;;;;;;;8.50;99.55;98901.44;10216122;23;19924;-76
2022/11/28 17:12:09;;;;;;;;;;;;;;;8.50;100.00;98906.63;10218133;23;19924;-76
2022/11/28 17:16:18;;;;;;;;;;;;;;;8.48;100.00;98908.34;10187278;23;20592;-75
2022/11/28 17:20:20;;;;;;;;;;;;;;;8.48;100.00;98916.13;10215656;23;20196;-75
2022/11/28 17:24:26;;;;;;;;;;;;;;;8.48;100.00;98916.13;10220389;23;19956;-75
2022/11/28 17:28:27;;;;;;;;;;;;;;;8.45;100.00;98921.31;10191230;23;19924;-75
2022/11/28 17:32:29;;;;;;;;;;;;;;;8.44;100.00;98923.03;10214148;23;19924;-76
2022/11/28 17:36:30;;;;;;;;;;;;;;;8.41;100.00;98923.03;10221413;23;19928;-76
2022/11/28 17:40:32;;;;;;;;;;;;;;;8.39;100.00;98927.34;10196590;23;20007;-75
2022/11/28 17:44:34;;;;;;;;;;;;;;;8.39;100.00;98929.94;10222568;23;19924;-75
2022/11/28 17:48:36;;;;;;;;;;;;;;;8.36;100.00;98924.78;10215782;23;20001;-76
2022/11/28 17:52:37;;;;;;;;;;;;;;;8.36;100.00;98924.78;10224350;23;20007;-75
2022/11/28 17:56:38;;;;;;;;;;;;;;;8.37;100.00;98928.22;10224826;23;20056;-75
2022/11/28 18:00:40;;;;;;;;;;;;;;;8.37;100.00;98923.91;10191437;23;20641;-75
2022/11/28 18:04:41;;;;;;;;;;;;;;;8.36;100.00;98929.09;10223105;23;19928;-76
2022/11/28 18:08:44;;;;;;;;;;;;;;;8.35;100.00;98928.22;10221631;23;20016;-75
2022/11/28 18:12:45;;;;;;;;;;;;;;;8.34;100.00;98931.69;10224836;23;19920;-75
2022/11/28 18:16:46;;;;;;;;;;;;;;;8.33;100.00;98936.84;10214360;23;19959;-75
2022/11/28 18:20:48;;;;;;;;;;;;;;;8.34;100.00;98933.41;10240473;23;19932;-75
2022/11/28 18:24:49;;;;;;;;;;;;;;;8.35;100.00;98937.72;10221801;23;19924;-75
2022/11/28 18:28:52;;;;;;;;;;;;;;;8.35;100.00;98933.41;10216748;23;19928;-75
2022/11/28 18:32:53;;;;;;;;;;;;;;;8.32;100.00;98935.97;10228355;23;19978;-75
2022/11/28 18:36:59;;;;;;;;;;;;;;;8.30;100.00;98942.00;10202940;23;19924;-76
2022/11/28 18:41:08;;;;;;;;;;;;;;;8.30;100.00;98942.88;10224128;23;20023;-75
2022/11/28 18:45:10;;;;;;;;;;;;;;;8.30;100.00;98945.47;10192988;23;19978;-75
2022/11/28 18:49:13;;;;;;;;;;;;;;;8.28;100.00;98944.59;10215218;23;19928;-76
2022/11/28 18:53:15;;;;;;;;;;;;;;;8.30;100.00;98953.22;10193969;23;19924;-75
2022/11/28 18:57:16;;;;;;;;;;;;;;;8.29;100.00;98948.06;10219875;23;19939;-75
2022/11/28 19:01:23;;;;;;;;;;;;;;;8.29;100.00;98955.81;10211792;23;20442;-76
2022/11/28 19:05:25;;;;;;;;;;;;;;;8.26;100.00;98951.50;10194845;23;20006;-75
2022/11/28 19:09:26;;;;;;;;;;;;;;;8.24;100.00;98950.63;10193336;23;19995;-76
2022/11/28 19:13:28;;;;;;;;;;;;;;;8.23;100.00;98953.22;10215232;23;20350;-75
2022/11/28 19:17:29;;;;;;;;;;;;;;;8.23;100.00;98956.66;10217835;23;19974;-75
2022/11/28 19:21:32;;;;;;;;;;;;;;;8.23;100.00;98958.38;10222555;23;19924;-75
2022/11/28 19:25:33;;;;;;;;;;;;;;;8.24;100.00;98962.69;10223938;23;19920;-74
2022/11/28 19:29:35;;;;;;;;;;;;;;;8.23;100.00;98967.00;10218017;23;19982;-76
2022/11/28 19:33:36;;;;;;;;;;;;;;;8.22;100.00;98961.84;10212574;23;19974;-76
2022/11/28 19:37:37;;;;;;;;;;;;;;;8.21;100.00;98963.56;10195908;23;20007;-75
2022/11/28 19:41:39;;;;;;;;;;;;;;;8.22;100.00;98969.59;10221862;23;19959;-75
2022/11/28 19:45:40;;;;;;;;;;;;;;;8.22;100.00;98978.22;10215108;23;19970;-75
2022/11/28 19:49:42;;;;;;;;;;;;;;;8.24;100.00;98975.63;10220108;23;19924;-75
2022/11/28 19:53:44;;;;;;;;;;;;;;;8.23;100.00;98979.09;10221082;23;19931;-75
2022/11/28 19:57:45;;;;;;;;;;;;;;;8.23;100.00;98976.50;10219129;23;19924;-76
2022/11/28 20:01:48;;;;;;;;;;;;;;;8.22;100.00;98982.53;10214159;23;19960;-75
2022/11/28 20:05:50;;;;;;;;;;;;;;;8.23;100.00;98979.94;10219357;23;20594;-75
2022/11/28 20:09:51;;;;;;;;;;;;;;;8.24;100.00;98983.38;10220016;23;19951;-75
2022/11/28 20:13:56;;;;;;;;;;;;;;;8.24;100.00;98986.84;10195360;23;19995;-75
2022/11/28 20:17:57;;;;;;;;;;;;;;;8.25;100.00;98988.56;10212510;23;19925;-74
2022/11/28 20:21:59;;;;;;;;;;;;;;;8.25;100.00;98990.28;10192152;23;19924;-75
2022/11/28 20:26:02;;;;;;;;;;;;;;;8.24;100.00;98999.75;10218365;23;19985;-75
2022/11/28 20:30:05;;;;;;;;;;;;;;;8.22;100.00;98996.31;10207705;23;19983;-75
2022/11/28 20:34:07;;;;;;;;;;;;;;;8.21;100.00;98997.19;10216334;23;20625;-75
2022/11/28 20:38:08;;;;;;;;;;;;;;;8.20;100.00;99005.81;10216190;23;20005;-75
2022/11/28 20:42:10;;;;;;;;;;;;;;;8.19;100.00;99007.53;10191759;23;20483;-74
2022/11/28 20:46:16;;;;;;;;;;;;;;;8.21;100.00;99007.53;10209032;23;20003;-74
2022/11/28 20:50:17;;;;;;;;;;;;;;;8.19;100.00;99015.28;10213838;23;19963;-76
2022/11/28 20:54:19;;;;;;;;;;;;;;;8.18;100.00;99010.13;10218415;23;19924;-75
2022/11/28 20:58:20;;;;;;;;;;;;;;;8.15;100.00;99012.72;10215079;23;20023;-75
2022/11/28 21:02:22;;;;;;;;;;;;;;;8.15;100.00;99010.13;10209458;23;19927;-75
2022/11/28 21:06:24;;;;;;;;;;;;;;;8.17;100.00;99011.00;10217567;23;19924;-74
2022/11/28 21:10:25;;;;;;;;;;;;;;;8.18;100.00;99012.72;10215784;23;19924;-75